M I D A S
Marine Information and Data Acquisition System
Tripno 2133 of the Zeeleeuw from 2011-02-24 08:26:42 to 2011-02-24 17:00:55
Back to CruiseResearch ActivitiesStationsMapUnderway DataData graphs

EquipmentUnitsComment
TimeDGPSUTC
LatitudeDGPSDM.mWGS84
LongitudeDGPSDM.mWGS84
HeadingGyrodeg 
SOGDGPSknotsSpeed over ground
COGDGPSdegCourse over ground
DepthEcho soundermeters200 kHz
Missing or incorrect values are displayed as -999
Navigation data collected by the RV Zeeleeuw from 2011-02-24 06:56:12 to 2011-02-24 17:01:52
Time Latitude Longitude Heading SOG COG Depth
2011-02-24 06:57:16 51°13.664 2°55.96 128.3 -999 330 -999
2011-02-24 06:58:17 51°13.664 2°55.96 128.1 0.2 163 -999
2011-02-24 06:59:17 51°13.662 2°55.961 128.3 0.1 39 -999
2011-02-24 07:00:17 51°13.662 2°55.961 127.5 -999 311 -999
2011-02-24 07:01:17 51°13.662 2°55.962 128 -999 73 -999
2011-02-24 07:02:17 51°13.662 2°55.961 127.3 0.1 317 -999
2011-02-24 07:03:17 51°13.663 2°55.961 126.4 0.1 1 -999
2011-02-24 07:04:17 51°13.663 2°55.961 127.4 0.1 82 -999
2011-02-24 07:05:17 51°13.663 2°55.961 128.1 0.2 348 -999
2011-02-24 07:06:17 51°13.663 2°55.961 128.3 -999 199 -999
2011-02-24 07:07:17 51°13.662 2°55.961 128.3 0.1 185 -999
2011-02-24 07:08:17 51°13.663 2°55.961 127.8 -999 87 -999
2011-02-24 07:09:17 51°13.662 2°55.961 127 0.1 323 -999
2011-02-24 07:10:17 51°13.662 2°55.961 126.6 -999 254 -999
2011-02-24 07:11:17 51°13.662 2°55.962 127.4 0.1 61 -999
2011-02-24 07:12:17 51°13.662 2°55.962 127.7 0.1 6 -999
2011-02-24 07:13:16 51°13.662 2°55.961 128.3 0.1 287 -999
2011-02-24 07:14:17 51°13.663 2°55.961 128.3 0.1 310 -999
2011-02-24 07:15:17 51°13.662 2°55.962 128.4 0.1 319 -999
2011-02-24 07:16:17 51°13.662 2°55.962 128.4 0.1 3 -999
2011-02-24 07:17:17 51°13.661 2°55.962 126.9 0.1 207 -999
2011-02-24 07:18:17 51°13.661 2°55.961 127.5 0.1 350 -999
2011-02-24 07:19:17 51°13.661 2°55.962 126.3 0.1 18 -999
2011-02-24 07:20:17 51°13.662 2°55.961 125.4 0.1 353 -999
2011-02-24 07:21:17 51°13.662 2°55.961 127 0.1 270 -999
2011-02-24 07:22:17 51°13.662 2°55.961 128.3 0.1 312 -999
2011-02-24 07:23:17 51°13.663 2°55.961 128.3 0.1 9 -999
2011-02-24 07:24:17 51°13.663 2°55.96 127.7 0.1 277 -999
2011-02-24 07:25:17 51°13.663 2°55.96 127.3 0.1 302 -999
2011-02-24 07:26:17 51°13.663 2°55.959 125.9 0.1 341 -999
2011-02-24 07:27:17 51°13.663 2°55.959 125.2 0.1 328 -999
2011-02-24 07:28:17 51°13.663 2°55.96 124.5 0.1 348 -999
2011-02-24 07:29:17 51°13.663 2°55.96 123.7 0.1 19 -999
2011-02-24 07:30:17 51°13.662 2°55.959 123.6 0.1 293 -999
2011-02-24 07:31:17 51°13.662 2°55.959 124.2 -999 344 -999
2011-02-24 07:32:16 51°13.662 2°55.959 124.8 0.1 345 -999
2011-02-24 07:33:16 51°13.662 2°55.96 125.4 0.1 334 -999
2011-02-24 07:34:17 51°13.662 2°55.96 124.5 0.1 312 -999
2011-02-24 07:35:17 51°13.662 2°55.96 125.5 -999 12 -999
2011-02-24 07:36:17 51°13.662 2°55.961 127 -999 170 -999
2011-02-24 07:37:17 51°13.662 2°55.96 126 -999 304 -999
2011-02-24 07:38:16 51°13.662 2°55.961 126.9 0.1 352 -999
2011-02-24 07:39:16 51°13.662 2°55.96 127 0.1 305 -999
2011-02-24 07:40:17 51°13.662 2°55.961 127.3 0.1 350 -999
2011-02-24 07:41:17 51°13.662 2°55.961 127.4 0.1 4 -999
2011-02-24 07:42:17 51°13.662 2°55.961 128.4 -999 302 -999
2011-02-24 07:43:17 51°13.662 2°55.961 128.4 0.1 305 -999
2011-02-24 07:44:17 51°13.662 2°55.961 128.4 0.1 18 -999
2011-02-24 07:45:17 51°13.663 2°55.961 126.6 0.1 338 -999
2011-02-24 07:46:16 51°13.663 2°55.961 127.8 0.1 284 -999
2011-02-24 07:47:17 51°13.663 2°55.961 128.3 0.1 31 -999
2011-02-24 07:48:17 51°13.662 2°55.961 128.7 -999 236 -999
2011-02-24 07:49:17 51°13.662 2°55.961 125.4 0.1 65 -999
2011-02-24 07:50:17 51°13.662 2°55.961 125.9 0.1 37 -999
2011-02-24 07:51:17 51°13.661 2°55.961 125.8 -999 167 -999
2011-02-24 07:52:17 51°13.662 2°55.961 126.7 -999 31 -999
2011-02-24 07:53:17 51°13.661 2°55.961 126.9 -999 348 -999
2011-02-24 07:54:16 51°13.661 2°55.962 127.9 0.1 8 -999
2011-02-24 07:55:16 51°13.661 2°55.961 127.2 0.1 271 -999
2011-02-24 07:56:17 51°13.662 2°55.961 127.1 0.1 12 -999
2011-02-24 07:57:16 51°13.662 2°55.961 126.4 0.1 342 -999
2011-02-24 07:58:17 51°13.662 2°55.961 128.4 0.2 10 -999
2011-02-24 07:59:17 51°13.662 2°55.962 127.7 0.1 25 -999
2011-02-24 08:00:17 51°13.662 2°55.961 127.5 0.1 274 -999
2011-02-24 08:01:17 51°13.662 2°55.961 127.2 0.1 51 -999
2011-02-24 08:02:17 51°13.662 2°55.96 125.7 0.1 306 -999
2011-02-24 08:03:17 51°13.662 2°55.961 127.4 0.1 330 -999
2011-02-24 08:04:17 51°13.662 2°55.96 127.9 -999 299 -999
2011-02-24 08:05:16 51°13.663 2°55.961 128.5 0.1 19 -999
2011-02-24 08:06:17 51°13.663 2°55.96 128.8 0.1 262 -999
2011-02-24 08:07:17 51°13.663 2°55.96 128.8 -999 262 -999
2011-02-24 08:08:17 51°13.664 2°55.961 128.8 -999 262 -999
2011-02-24 08:09:17 51°13.664 2°55.961 128.7 -999 186 -999
2011-02-24 08:10:17 51°13.664 2°55.961 128.6 0.1 183 -999
2011-02-24 08:11:17 51°13.664 2°55.96 128.8 0.1 226 -999
2011-02-24 08:12:16 51°13.664 2°55.96 128.8 -999 245 -999
2011-02-24 08:13:17 51°13.665 2°55.96 128.8 0.1 226 8.6
2011-02-24 08:14:17 51°13.665 2°55.961 128.8 0.2 24 -999
2011-02-24 08:15:17 51°13.664 2°55.961 128.7 0.1 47 -999
2011-02-24 08:16:17 51°13.664 2°55.962 128.7 0.1 165 -999
2011-02-24 08:17:17 51°13.664 2°55.961 128.7 -999 8 -999
2011-02-24 08:18:17 51°13.664 2°55.962 128.7 0.2 32 -999
2011-02-24 08:19:17 51°13.664 2°55.962 128.7 0.2 32 -999
2011-02-24 08:20:17 51°13.664 2°55.961 128.6 0.1 212 -999
2011-02-24 08:21:16 51°13.664 2°55.961 128.6 -999 300 -999
2011-02-24 08:22:16 51°13.663 2°55.962 128.6 -999 46 -999
2011-02-24 08:23:17 51°13.663 2°55.962 128.5 -999 332 -999
2011-02-24 08:24:17 51°13.663 2°55.962 128.4 0.1 71 -999
2011-02-24 08:25:17 51°13.662 2°55.96 128.4 0.2 200 -999
2011-02-24 08:26:17 51°13.662 2°55.96 128.4 0.1 317 -999
2011-02-24 08:27:17 51°13.662 2°55.96 128.9 0.1 275 8.2
2011-02-24 08:28:17 51°13.661 2°55.961 115.5 0.1 45 -999
2011-02-24 08:29:17 51°13.662 2°55.961 112.9 0.1 47 -999
2011-02-24 08:30:17 51°13.66 2°55.96 111.8 0.1 199 -999
2011-02-24 08:31:16 51°13.668 2°55.941 112.6 2.9 300 8.5
2011-02-24 08:32:16 51°13.694 2°55.856 108 2.1 290 -999
2011-02-24 08:33:17 51°13.707 2°55.767 84.7 3.1 274 -999
2011-02-24 08:34:17 51°13.709 2°55.734 43.4 0.7 264 -999
2011-02-24 08:35:17 51°13.705 2°55.711 358 2.3 344 -999
2011-02-24 08:36:15 51°13.795 2°55.654 338.1 3.7 338 -999
2011-02-24 08:37:17 51°13.943 2°55.54 338 4.5 341 -999
2011-02-24 08:38:16 51°14.105 2°55.429 337 11 335 -999
2011-02-24 08:39:17 51°14.271 2°55.286 332 11.3 330 11.4
2011-02-24 08:40:15 51°14.43 2°55.128 330.6 11.7 329 10.9
2011-02-24 08:41:13 51°14.589 2°54.956 326.4 12.1 321 11.6
2011-02-24 08:42:13 51°14.761 2°54.777 334.2 12.7 329 11.6
2011-02-24 08:43:13 51°14.949 2°54.602 334.2 13.2 330 10.5
2011-02-24 08:44:14 51°15.119 2°54.376 316.5 13.3 314 10.7
2011-02-24 08:45:13 51°15.257 2°54.107 308.7 13.3 308 11.3
2011-02-24 08:46:13 51°15.402 2°53.843 315 13.2 312 10
2011-02-24 08:47:13 51°15.546 2°53.575 314.7 13.3 311 11
2011-02-24 08:48:13 51°15.71 2°53.344 328.1 13.1 327 11.6
2011-02-24 08:49:13 51°15.908 2°53.203 342.6 13.2 337 11.8
2011-02-24 08:50:13 51°16.11 2°53.071 341.3 13.1 338 12
2011-02-24 08:51:13 51°16.312 2°52.935 340.7 13.1 337 11.9
2011-02-24 08:52:13 51°16.513 2°52.799 339.9 13.2 337 11.6
2011-02-24 08:53:13 51°16.713 2°52.662 339.8 13 336 10.5
2011-02-24 08:54:13 51°16.914 2°52.529 340.3 13.2 337 9.8
2011-02-24 08:55:13 51°17.114 2°52.391 340.1 13.2 337 10
2011-02-24 08:56:13 51°17.317 2°52.254 340.2 13.3 337 10.9
2011-02-24 08:57:12 51°17.516 2°52.122 341.2 13 337 11.4
2011-02-24 08:58:13 51°17.721 2°51.982 341 13.1 337 10.4
2011-02-24 08:59:13 51°17.921 2°51.842 340.8 13 336 10.2
2011-02-24 09:00:12 51°18.12 2°51.703 340.3 13.3 336 10.8
2011-02-24 09:01:12 51°18.324 2°51.561 340.3 13.4 336 12.2
2011-02-24 09:02:12 51°18.527 2°51.418 340.1 13.3 336 13.4
2011-02-24 09:03:12 51°18.729 2°51.276 339.7 13.3 336 14.4
2011-02-24 09:04:12 51°18.931 2°51.133 341 13.3 337 14.9
2011-02-24 09:05:12 51°19.132 2°50.988 340.9 13.3 337 14.9
2011-02-24 09:06:12 51°19.335 2°50.844 340 13.4 336 14.3
2011-02-24 09:07:12 51°19.538 2°50.7 340.4 13.4 336 12.3
2011-02-24 09:08:12 51°19.742 2°50.553 340.4 13.5 336 12.3
2011-02-24 09:09:13 51°19.94 2°50.372 328.8 13.6 325 14.6
2011-02-24 09:10:13 51°20.112 2°50.139 321.6 13.6 317 16.1
2011-02-24 09:11:13 51°20.277 2°49.895 321.9 13.5 317 19.4
2011-02-24 09:12:13 51°20.444 2°49.657 324.5 13.5 320 22.2
2011-02-24 09:13:13 51°20.614 2°49.429 324.2 13.3 321 22.8
2011-02-24 09:14:13 51°20.786 2°49.2 324.3 13.4 321 22.6
2011-02-24 09:15:13 51°20.959 2°48.972 324 13.4 320 21.7
2011-02-24 09:16:13 51°21.134 2°48.744 324.7 13.5 321 20.7
2011-02-24 09:17:13 51°21.309 2°48.519 324.5 13.6 320 21
2011-02-24 09:18:13 51°21.487 2°48.302 333.3 13.4 330 22.5
2011-02-24 09:19:13 51°21.694 2°48.168 347.8 13.3 343 23.2
2011-02-24 09:20:13 51°21.909 2°48.098 356.2 13.2 350 23.8
2011-02-24 09:21:13 51°22.126 2°48.035 355.1 13.1 349 23.8
2011-02-24 09:22:13 51°22.342 2°47.965 355 13.2 348 19.6
2011-02-24 09:23:13 51°22.557 2°47.897 355.1 13.3 349 18.7
2011-02-24 09:24:13 51°22.775 2°47.826 354.5 13.4 348 19.2
2011-02-24 09:25:13 51°22.992 2°47.756 355 13.4 348 20.2
2011-02-24 09:26:13 51°23.21 2°47.682 354 13.4 347 17.6
2011-02-24 09:27:13 51°23.427 2°47.608 354.4 13.4 348 17.8
2011-02-24 09:28:13 51°23.644 2°47.538 354.3 13.3 347 22
2011-02-24 09:29:13 51°23.861 2°47.468 355.1 13.3 349 23.2
2011-02-24 09:30:13 51°24.075 2°47.398 353.6 13.1 348 26
2011-02-24 09:31:13 51°24.289 2°47.329 354.7 13.1 348 26.8
2011-02-24 09:32:13 51°24.502 2°47.26 354.3 13 349 30.8
2011-02-24 09:33:13 51°24.715 2°47.19 354.3 13.1 348 30.3
2011-02-24 09:34:13 51°24.929 2°47.117 353.8 13.2 347 28.8
2011-02-24 09:35:13 51°25.143 2°47.046 354.6 13.2 348 24.4
2011-02-24 09:36:13 51°25.359 2°46.974 353.8 13.3 348 25
2011-02-24 09:37:13 51°25.576 2°46.898 354.3 13.3 349 23.2
2011-02-24 09:38:13 51°25.795 2°46.829 354.4 13.3 349 21.4
2011-02-24 09:39:13 51°26.016 2°46.763 354.1 13.4 349 24.1
2011-02-24 09:40:13 51°26.233 2°46.696 354.4 13.4 349 24.6
2011-02-24 09:41:13 51°26.45 2°46.618 347.2 13.4 341 26.5
2011-02-24 09:42:13 51°26.657 2°46.494 344.5 13.3 340 25.5
2011-02-24 09:43:13 51°26.863 2°46.368 345.4 13.3 340 27.5
2011-02-24 09:44:13 51°27.07 2°46.245 345 13.2 340 29.3
2011-02-24 09:45:13 51°27.277 2°46.122 345.5 13.2 339 29.1
2011-02-24 09:46:13 51°27.483 2°45.998 344.8 13.1 339 28.3
2011-02-24 09:47:13 51°27.689 2°45.875 346 13.2 341 28.1
2011-02-24 09:48:13 51°27.896 2°45.75 345.1 13.3 340 26.9
2011-02-24 09:49:13 51°28.104 2°45.631 345.5 13.2 341 27.3
2011-02-24 09:50:13 51°28.31 2°45.507 346 13.3 340 26.7
2011-02-24 09:51:13 51°28.516 2°45.388 345.2 13.1 339 26.6
2011-02-24 09:52:13 51°28.721 2°45.265 345.1 13.2 340 25.7
2011-02-24 09:53:13 51°28.926 2°45.142 346.2 13.2 340 28.1
2011-02-24 09:54:13 51°29.132 2°45.02 345.2 13.2 339 24.8
2011-02-24 09:55:13 51°29.337 2°44.904 346.3 13.1 341 28
2011-02-24 09:56:13 51°29.543 2°44.786 345.2 13.1 341 27.6
2011-02-24 09:57:13 51°29.748 2°44.669 345.2 13.1 341 29.3
2011-02-24 09:58:13 51°29.953 2°44.546 344.7 13.1 339 31.6
2011-02-24 09:59:13 51°30.157 2°44.428 345.3 13.1 341 32.1
2011-02-24 10:00:13 51°30.36 2°44.309 345.2 13.2 340 33.2
2011-02-24 10:01:13 51°30.566 2°44.189 345.6 13.1 339 28.9
2011-02-24 10:02:13 51°30.771 2°44.068 345.1 13 339 31.8
2011-02-24 10:03:13 51°30.921 2°43.97 343.4 7.1 337 32.8
2011-02-24 10:04:13 51°31.016 2°43.924 1.3 5.2 354 34.2
2011-02-24 10:05:13 51°31.105 2°43.941 18.7 6 11 33.3
2011-02-24 10:06:13 51°31.208 2°43.979 18.9 6.5 13 34.1
2011-02-24 10:07:13 51°31.316 2°44.017 18.9 6.7 13 34.3
2011-02-24 10:08:13 51°31.423 2°44.055 19.3 6.5 12 33.5
2011-02-24 10:09:13 51°31.529 2°44.095 20.1 6.3 14 34.1
2011-02-24 10:10:13 51°31.63 2°44.132 19.2 6.1 13 33.9
2011-02-24 10:11:13 51°31.729 2°44.168 20.4 6.1 13 34.2
2011-02-24 10:12:13 51°31.827 2°44.205 19.9 6.1 14 35.3
2011-02-24 10:13:13 51°31.922 2°44.253 26.3 5.9 20 33.5
2011-02-24 10:14:13 51°32.015 2°44.308 25.9 6 20 32.6
2011-02-24 10:15:13 51°32.108 2°44.359 24.5 5.9 19 33
2011-02-24 10:16:13 51°32.209 2°44.414 25.2 6.8 19 30.9
2011-02-24 10:17:13 51°32.318 2°44.476 25.5 7 18 31.3
2011-02-24 10:18:13 51°32.428 2°44.539 25.3 7.1 20 31
2011-02-24 10:19:13 51°32.538 2°44.604 25.4 7 21 31.1
2011-02-24 10:20:13 51°32.649 2°44.667 25.8 7.1 20 30.6
2011-02-24 10:21:13 51°32.759 2°44.732 25.2 7 20 28.7
2011-02-24 10:22:13 51°32.869 2°44.795 25.1 7 18 29.9
2011-02-24 10:23:13 51°32.979 2°44.859 25.2 7 20 30.1
2011-02-24 10:24:13 51°33.088 2°44.923 25.5 7 20 30.1
2011-02-24 10:25:13 51°33.198 2°44.987 25 7 21 29.3
2011-02-24 10:26:13 51°33.306 2°45.051 25.3 7 22 27.8
2011-02-24 10:27:13 51°33.415 2°45.115 24.9 7 20 29.7
2011-02-24 10:28:13 51°33.521 2°45.187 30.3 6.8 27 28
2011-02-24 10:29:13 51°33.624 2°45.27 30.5 6.9 26 29
2011-02-24 10:30:13 51°33.727 2°45.351 30.6 7 25 29.7
2011-02-24 10:31:13 51°33.829 2°45.432 30 6.9 27 27.8
2011-02-24 10:32:13 51°33.931 2°45.515 30.8 6.9 27 30.4
2011-02-24 10:33:13 51°34.033 2°45.597 30.9 6.8 27 30.4
2011-02-24 10:34:13 51°34.135 2°45.68 31 6.8 28 30.1
2011-02-24 10:35:13 51°34.237 2°45.762 30.6 6.8 26 30.8
2011-02-24 10:36:13 51°34.34 2°45.844 29.9 6.9 26 30.8
2011-02-24 10:37:13 51°34.441 2°45.926 30.2 6.8 27 31.5
2011-02-24 10:38:13 51°34.542 2°46.008 30.6 6.9 25 30.3
2011-02-24 10:39:13 51°34.644 2°46.09 30 6.9 27 32.3
2011-02-24 10:40:13 51°34.746 2°46.172 29.7 6.9 26 31.4
2011-02-24 10:41:13 51°34.848 2°46.252 30.7 6.9 27 32.2
2011-02-24 10:42:13 51°34.951 2°46.3 13.7 6.2 8 32.7
2011-02-24 10:43:13 51°35.049 2°46.325 18 5.8 14 30
2011-02-24 10:44:13 51°35.144 2°46.365 20.2 5.9 15 30.5
2011-02-24 10:45:13 51°35.24 2°46.403 19.7 6.1 14 31.6
2011-02-24 10:46:13 51°35.335 2°46.46 31.6 6.2 28 30.4
2011-02-24 10:47:13 51°35.426 2°46.539 31.6 6.3 26 30.6
2011-02-24 10:48:13 51°35.518 2°46.613 30.9 6.2 27 31
2011-02-24 10:49:13 51°35.61 2°46.687 30.9 6.2 26 31.6
2011-02-24 10:50:13 51°35.701 2°46.761 31.1 6.2 25 30.4
2011-02-24 10:51:13 51°35.793 2°46.835 30 6.1 26 32.4
2011-02-24 10:52:13 51°35.885 2°46.907 30.4 6.2 26 33.1
2011-02-24 10:53:13 51°35.976 2°46.982 31.1 6.1 28 33.9
2011-02-24 10:54:13 51°36.067 2°47.055 30.2 6.2 26 32.6
2011-02-24 10:55:13 51°36.159 2°47.129 30.5 6.1 27 33.8
2011-02-24 10:56:13 51°36.251 2°47.201 29.9 6.2 27 33.5
2011-02-24 10:57:13 51°36.342 2°47.274 30 6.2 26 31.8
2011-02-24 10:58:13 51°36.433 2°47.347 30.2 6.2 25 32.7
2011-02-24 10:59:13 51°36.523 2°47.42 30 6 27 34.7
2011-02-24 11:00:13 51°36.613 2°47.495 30.4 6.1 28 35.4
2011-02-24 11:01:13 51°36.703 2°47.567 30.1 6 25 34.6
2011-02-24 11:02:13 51°36.792 2°47.638 30.6 5.9 26 34.7
2011-02-24 11:03:13 51°36.881 2°47.704 22.8 5.9 16 34.5
2011-02-24 11:04:13 51°36.984 2°47.731 13.8 6.4 8 35.1
2011-02-24 11:05:13 51°37.092 2°47.733 355.7 6.6 343 32.7
2011-02-24 11:06:13 51°37.187 2°47.65 338 6.6 328 29.7
2011-02-24 11:07:13 51°37.281 2°47.554 339.8 6.7 328 23.8
2011-02-24 11:08:13 51°37.376 2°47.458 340.1 6.8 329 19.4
2011-02-24 11:09:13 51°37.462 2°47.341 323.7 6.8 310 16.8
2011-02-24 11:10:13 51°37.534 2°47.203 322.4 6.7 310 18.5
2011-02-24 11:11:13 51°37.606 2°47.067 322.3 6.7 309 22.9
2011-02-24 11:12:13 51°37.649 2°46.899 291.9 6.9 280 25.8
2011-02-24 11:13:13 51°37.642 2°46.713 265.9 7.2 259 27.5
2011-02-24 11:14:13 51°37.613 2°46.531 252.4 6.5 246 29.9
2011-02-24 11:15:13 51°37.548 2°46.405 215.9 6.1 216 30.6
2011-02-24 11:16:13 51°37.456 2°46.337 193.1 6.2 198 31.6
2011-02-24 11:17:13 51°37.355 2°46.276 198.3 6.6 203 30.2
2011-02-24 11:18:13 51°37.254 2°46.208 198.4 6.6 203 31.1
2011-02-24 11:19:13 51°37.154 2°46.141 199 6.6 203 30.8
2011-02-24 11:20:13 51°37.053 2°46.074 198 6.5 202 30.8
2011-02-24 11:21:13 51°36.952 2°46.008 197.8 6.6 202 31.8
2011-02-24 11:22:13 51°36.85 2°45.944 197.9 6.6 202 31.3
2011-02-24 11:23:13 51°36.749 2°45.877 198.7 6.6 202 31.2
2011-02-24 11:24:13 51°36.648 2°45.809 198.6 6.7 203 32.1
2011-02-24 11:25:13 51°36.546 2°45.742 198.2 6.6 202 32.6
2011-02-24 11:26:13 51°36.445 2°45.673 198.6 6.6 202 32.5
2011-02-24 11:27:13 51°36.343 2°45.605 198.6 6.6 203 28.3
2011-02-24 11:28:13 51°36.241 2°45.537 198.3 6.5 202 30.4
2011-02-24 11:29:13 51°36.14 2°45.471 198.2 6.6 202 30
2011-02-24 11:30:13 51°36.038 2°45.404 198 6.6 202 28.3
2011-02-24 11:31:13 51°35.936 2°45.336 198.8 6.6 203 31.5
2011-02-24 11:32:13 51°35.834 2°45.269 198.1 6.7 201 27.5
2011-02-24 11:33:13 51°35.732 2°45.201 199 6.7 203 28.9
2011-02-24 11:34:13 51°35.629 2°45.131 198.9 6.7 204 28.6
2011-02-24 11:35:13 51°35.527 2°45.062 198.4 6.6 202 28.6
2011-02-24 11:36:13 51°35.427 2°44.981 205.5 6.7 208 27.1
2011-02-24 11:37:13 51°35.328 2°44.893 206.2 6.8 209 27.5
2011-02-24 11:38:13 51°35.229 2°44.805 206.2 6.8 209 26.8
2011-02-24 11:39:13 51°35.13 2°44.717 205.6 6.8 208 29.4
2011-02-24 11:40:13 51°35.031 2°44.63 205.5 6.7 208 27.6
2011-02-24 11:41:13 51°34.932 2°44.542 205.8 6.8 207 28.2
2011-02-24 11:42:13 51°34.831 2°44.455 205.5 6.9 209 27.7
2011-02-24 11:43:13 51°34.731 2°44.369 205.3 6.8 208 28.8
2011-02-24 11:44:13 51°34.632 2°44.282 205.6 6.8 209 28.7
2011-02-24 11:45:13 51°34.532 2°44.197 204.7 6.8 208 28.1
2011-02-24 11:46:13 51°34.431 2°44.113 205.3 6.7 208 29.1
2011-02-24 11:47:13 51°34.331 2°44.027 205.3 6.8 208 28.5
2011-02-24 11:48:13 51°34.231 2°43.941 205.4 6.8 208 29.4
2011-02-24 11:49:13 51°34.129 2°43.856 204.8 6.8 208 29.7
2011-02-24 11:50:13 51°34.029 2°43.771 205.6 6.8 208 30
2011-02-24 11:51:13 51°33.927 2°43.692 195.8 6.7 199 30.9
2011-02-24 11:52:13 51°33.819 2°43.646 187.2 6.7 193 30.9
2011-02-24 11:53:13 51°33.715 2°43.578 210.1 6.7 213 30.8
2011-02-24 11:54:13 51°33.651 2°43.444 251.5 6.3 245 31.5
2011-02-24 11:55:13 51°33.63 2°43.284 277.8 6.1 265 33.3
2011-02-24 11:56:13 51°33.626 2°43.114 280 6.6 268 34
2011-02-24 11:57:13 51°33.621 2°42.933 278.9 6.9 268 35.8
2011-02-24 11:58:13 51°33.616 2°42.747 279 7 268 35.6
2011-02-24 11:59:13 51°33.612 2°42.561 279.1 7 268 37.7
2011-02-24 12:00:13 51°33.608 2°42.377 280.3 7 268 35.7
2011-02-24 12:01:13 51°33.599 2°42.192 278.8 6.9 265 38.6
2011-02-24 12:02:13 51°33.591 2°42.008 281 6.9 267 34.2
2011-02-24 12:03:13 51°33.586 2°41.823 287.3 6.7 273 37.9
2011-02-24 12:04:13 51°33.627 2°41.692 339 4.7 323 37.8
2011-02-24 12:05:13 51°33.703 2°41.65 359.6 5.3 347 37.4
2011-02-24 12:06:13 51°33.796 2°41.615 358 6.2 348 38.2
2011-02-24 12:07:13 51°33.897 2°41.622 16.3 6.2 11 40.2
2011-02-24 12:08:13 51°33.999 2°41.649 16 6.2 10 39.3
2011-02-24 12:09:13 51°34.101 2°41.673 15.6 6.2 9 38.9
2011-02-24 12:10:13 51°34.203 2°41.699 15.3 6.2 8 39.5
2011-02-24 12:11:13 51°34.305 2°41.726 16 6.2 10 40.1
2011-02-24 12:12:13 51°34.408 2°41.75 14.6 6.3 8 40.2
2011-02-24 12:13:13 51°34.511 2°41.776 15.9 6.2 9 40.4
2011-02-24 12:14:13 51°34.612 2°41.803 16.8 6.1 13 39.7
2011-02-24 12:15:13 51°34.712 2°41.843 18.7 6.2 13 40.8
2011-02-24 12:16:13 51°34.811 2°41.889 21.6 6.2 17 40.3
2011-02-24 12:17:13 51°34.909 2°41.935 21.9 6.2 17 40.3
2011-02-24 12:18:13 51°35.008 2°41.976 20.5 6.2 16 40
2011-02-24 12:19:13 51°35.107 2°42.018 19.2 6.2 12 40.3
2011-02-24 12:20:13 51°35.205 2°42.062 18.9 6.2 11 41.3
2011-02-24 12:21:13 51°35.304 2°42.099 22.1 6.1 17 41.8
2011-02-24 12:22:13 51°35.403 2°42.143 18.1 6.2 12 41.5
2011-02-24 12:23:13 51°35.501 2°42.192 24.7 6.2 19 41.2
2011-02-24 12:24:13 51°35.599 2°42.238 20.3 6.2 16 40.5
2011-02-24 12:25:13 51°35.698 2°42.281 19 6.2 14 42.2
2011-02-24 12:26:13 51°35.797 2°42.329 21 6.2 15 41.8
2011-02-24 12:27:13 51°35.897 2°42.371 21.1 6.2 17 42.5
2011-02-24 12:28:13 51°35.997 2°42.415 22.6 6.2 17 40.8
2011-02-24 12:29:13 51°36.098 2°42.455 21 6.2 17 43.4
2011-02-24 12:30:13 51°36.199 2°42.498 17.8 6.4 12 41.3
2011-02-24 12:31:13 51°36.301 2°42.538 19.1 6.3 14 41.1
2011-02-24 12:32:13 51°36.402 2°42.58 19.8 6.2 15 38.3
2011-02-24 12:33:13 51°36.502 2°42.622 19.6 6.2 15 39.1
2011-02-24 12:34:13 51°36.603 2°42.664 20.8 6.3 15 38.2
2011-02-24 12:35:13 51°36.704 2°42.708 20.2 6.3 16 37.9
2011-02-24 12:36:13 51°36.804 2°42.754 20.4 6.3 15 39.3
2011-02-24 12:37:13 51°36.905 2°42.796 19 6.3 12 38.3
2011-02-24 12:38:13 51°37.01 2°42.775 0.1 6.4 351 37.9
2011-02-24 12:39:13 51°37.116 2°42.744 0.7 6.5 348 37.7
2011-02-24 12:40:13 51°37.222 2°42.712 0.8 6.5 350 37.3
2011-02-24 12:41:13 51°37.328 2°42.684 1.4 6.4 352 37.2
2011-02-24 12:42:13 51°37.434 2°42.655 0.8 6.5 350 37
2011-02-24 12:43:13 51°37.541 2°42.627 1.3 6.4 352 37.2
2011-02-24 12:44:13 51°37.646 2°42.595 1.2 6.4 351 36.4
2011-02-24 12:45:13 51°37.751 2°42.565 -999 6.4 351 37
2011-02-24 12:46:13 51°37.857 2°42.534 1 6.5 350 36.5
2011-02-24 12:47:13 51°37.963 2°42.503 0.5 6.4 349 33.9
2011-02-24 12:48:13 51°38.07 2°42.471 1.8 6.4 351 35.5
2011-02-24 12:49:13 51°38.175 2°42.44 357.3 6.5 344 35.2
2011-02-24 12:50:13 51°38.281 2°42.405 1.2 6.5 350 34.2
2011-02-24 12:51:13 51°38.387 2°42.371 0.1 6.5 349 34.1
2011-02-24 12:52:13 51°38.494 2°42.341 0.4 6.6 350 33.6
2011-02-24 12:53:13 51°38.602 2°42.313 0.3 6.6 352 33
2011-02-24 12:54:13 51°38.711 2°42.277 358 6.7 348 31.6
2011-02-24 12:55:13 51°38.82 2°42.249 0.9 6.6 351 28.9
2011-02-24 12:56:13 51°38.931 2°42.223 1.5 6.7 351 28.4
2011-02-24 12:57:13 51°39.04 2°42.191 359.6 6.7 349 28.7
2011-02-24 12:58:13 51°39.15 2°42.156 358.2 6.8 346 24.1
2011-02-24 12:59:13 51°39.259 2°42.123 2 6.7 351 27.7
2011-02-24 13:00:13 51°39.369 2°42.089 359.5 6.7 350 27.2
2011-02-24 13:01:13 51°39.479 2°42.061 0.4 6.8 350 28.4
2011-02-24 13:02:13 51°39.59 2°42.031 -999 6.8 351 29.3
2011-02-24 13:03:13 51°39.7 2°41.995 358.5 6.7 348 29.6
2011-02-24 13:04:13 51°39.808 2°41.962 -999 6.5 349 30
2011-02-24 13:05:13 51°39.915 2°41.927 359.7 6.5 348 28.8
2011-02-24 13:06:13 51°40.021 2°41.89 1 6.5 350 28.9
2011-02-24 13:07:13 51°40.127 2°41.853 358.9 6.7 347 32.4
2011-02-24 13:08:13 51°40.231 2°41.796 347.5 6.7 336 34.3
2011-02-24 13:09:13 51°40.329 2°41.706 334.7 7 320 32.8
2011-02-24 13:10:13 51°40.41 2°41.566 326.5 7.2 312 34.9
2011-02-24 13:11:13 51°40.494 2°41.428 327.4 7.3 313 35.1
2011-02-24 13:12:13 51°40.579 2°41.289 328.7 7.2 314 34.7
2011-02-24 13:13:13 51°40.669 2°41.164 337.6 7 327 37.1
2011-02-24 13:14:13 51°40.77 2°41.103 358.8 6.5 348 36.9
2011-02-24 13:15:13 51°40.876 2°41.068 358.3 6.6 348 38.1
2011-02-24 13:16:13 51°40.981 2°41.036 0.3 6.4 351 38.2
2011-02-24 13:17:13 51°41.086 2°41.007 357.8 6.4 348 37.4
2011-02-24 13:18:13 51°41.191 2°40.968 0.1 6.4 348 35.2
2011-02-24 13:19:13 51°41.295 2°40.938 0.5 6.4 350 36.3
2011-02-24 13:20:13 51°41.4 2°40.915 6.6 6.2 -999 39.5
2011-02-24 13:21:13 51°41.498 2°40.952 22.6 6 17 38.5
2011-02-24 13:22:13 51°41.595 2°40.998 22.9 6 18 40.3
2011-02-24 13:23:13 51°41.693 2°41.048 21 6.2 16 38.7
2011-02-24 13:24:13 51°41.79 2°41.097 23.4 6.1 17 42.1
2011-02-24 13:25:13 51°41.886 2°41.149 21.9 6.1 17 39.5
2011-02-24 13:26:13 51°41.983 2°41.2 23.4 6 17 37.6
2011-02-24 13:27:13 51°42.08 2°41.251 22.2 6.2 17 34.3
2011-02-24 13:28:13 51°42.163 2°41.336 41 5.9 41 38.7
2011-02-24 13:29:13 51°42.237 2°41.445 40.4 6.1 41 39.2
2011-02-24 13:30:13 51°42.312 2°41.558 49.2 6.3 53 37
2011-02-24 13:31:13 51°42.356 2°41.715 63.8 6.5 68 37.2
2011-02-24 13:32:13 51°42.397 2°41.875 60.3 6.5 65 38.6
2011-02-24 13:33:13 51°42.442 2°42.033 60.3 6.5 65 39.6
2011-02-24 13:34:13 51°42.488 2°42.195 60.2 6.5 65 38.8
2011-02-24 13:35:13 51°42.535 2°42.353 59.8 6.6 65 38.4
2011-02-24 13:36:13 51°42.58 2°42.515 62.9 6.7 71 38.9
2011-02-24 13:37:13 51°42.584 2°42.695 85.2 6.5 94 34.5
2011-02-24 13:38:13 51°42.572 2°42.861 85 6 97 34.1
2011-02-24 13:39:13 51°42.564 2°43.019 84.3 5.9 95 38.8
2011-02-24 13:40:13 51°42.555 2°43.189 86 6.8 94 37.5
2011-02-24 13:41:13 51°42.544 2°43.376 87 7.1 96 34.3
2011-02-24 13:42:13 51°42.534 2°43.557 84.8 6.7 94 36.4
2011-02-24 13:43:13 51°42.524 2°43.736 86.2 6.6 95 36.7
2011-02-24 13:44:13 51°42.515 2°43.913 86.6 6.6 95 37
2011-02-24 13:45:13 51°42.504 2°44.089 85.4 6.6 93 35.9
2011-02-24 13:46:13 51°42.494 2°44.265 86.1 6.6 96 39.2
2011-02-24 13:47:13 51°42.467 2°44.44 103.2 6.9 113 39.7
2011-02-24 13:48:13 51°42.414 2°44.608 107.6 7 118 37
2011-02-24 13:49:13 51°42.361 2°44.766 108.3 6.6 120 35.2
2011-02-24 13:50:13 51°42.307 2°44.919 108.1 6.5 120 36.4
2011-02-24 13:51:13 51°42.253 2°45.069 109.1 6.5 122 32
2011-02-24 13:52:13 51°42.2 2°45.219 107.2 6.4 119 37
2011-02-24 13:53:13 51°42.148 2°45.369 111.6 6.5 124 36.4
2011-02-24 13:54:13 51°42.067 2°45.493 132.8 6.9 142 38
2011-02-24 13:55:13 51°41.973 2°45.603 134.5 7 144 35
2011-02-24 13:56:13 51°41.88 2°45.715 134.2 7 144 38.7
2011-02-24 13:57:13 51°41.788 2°45.827 133.1 7 142 38.3
2011-02-24 13:58:13 51°41.694 2°45.938 136.8 7 147 41.3
2011-02-24 13:59:13 51°41.581 2°45.994 168.1 7.3 174 41.3
2011-02-24 14:00:13 51°41.46 2°45.975 187.4 7.2 191 40.7
2011-02-24 14:01:13 51°41.351 2°45.935 192.1 6.5 194 35
2011-02-24 14:02:13 51°41.248 2°45.896 192.4 6.2 194 40.5
2011-02-24 14:03:13 51°41.148 2°45.85 194.6 6.3 196 36.4
2011-02-24 14:04:13 51°41.046 2°45.803 193.4 6.4 196 37.1
2011-02-24 14:05:13 51°40.945 2°45.757 193.8 6.3 196 37.7
2011-02-24 14:06:13 51°40.843 2°45.713 193.7 6.4 195 37.7
2011-02-24 14:07:13 51°40.742 2°45.666 195.3 6.3 196 35.5
2011-02-24 14:08:13 51°40.641 2°45.62 194.1 6.3 196 39.8
2011-02-24 14:09:13 51°40.54 2°45.575 193.8 6.2 194 39.7
2011-02-24 14:10:13 51°40.439 2°45.532 194 6.2 195 38.1
2011-02-24 14:11:13 51°40.339 2°45.487 194.5 6.2 196 36.6
2011-02-24 14:12:13 51°40.239 2°45.44 194.7 6.3 196 34.3
2011-02-24 14:13:13 51°40.138 2°45.396 193.9 6.3 195 39.1
2011-02-24 14:14:13 51°40.036 2°45.351 194.4 6.5 196 38.3
2011-02-24 14:15:13 51°39.931 2°45.304 195.3 6.6 197 39.7
2011-02-24 14:16:13 51°39.825 2°45.255 198.2 6.6 199 34.1
2011-02-24 14:17:13 51°39.722 2°45.191 201.4 6.7 202 35.7
2011-02-24 14:18:13 51°39.617 2°45.127 200.9 6.6 200 37.3
2011-02-24 14:19:13 51°39.511 2°45.072 195.9 6.7 196 37.6
2011-02-24 14:20:13 51°39.405 2°45.018 197.8 6.7 198 36.9
2011-02-24 14:21:13 51°39.3 2°44.963 197.2 6.6 197 37.1
2011-02-24 14:22:13 51°39.195 2°44.908 198.2 6.7 198 36.6
2011-02-24 14:23:13 51°39.09 2°44.856 197.1 6.6 197 39
2011-02-24 14:24:13 51°38.986 2°44.805 196.7 6.5 197 36.2
2011-02-24 14:25:13 51°38.88 2°44.756 197.6 6.6 197 38
2011-02-24 14:26:13 51°38.776 2°44.704 198.2 6.5 198 36
2011-02-24 14:27:13 51°38.672 2°44.653 198.1 6.7 198 31.9
2011-02-24 14:28:13 51°38.567 2°44.602 196 6.6 195 40.2
2011-02-24 14:29:13 51°38.462 2°44.552 197.5 6.6 197 31.4
2011-02-24 14:30:13 51°38.357 2°44.503 196.9 6.6 196 35.3
2011-02-24 14:31:13 51°38.252 2°44.456 197 6.6 196 35.4
2011-02-24 14:32:13 51°38.147 2°44.407 197.3 6.5 196 31.8
2011-02-24 14:33:13 51°38.044 2°44.357 197.6 6.5 197 35.6
2011-02-24 14:34:13 51°37.94 2°44.31 196.8 6.5 196 38.6
2011-02-24 14:35:13 51°37.837 2°44.263 198.2 6.3 197 36.2
2011-02-24 14:36:13 51°37.734 2°44.216 197.7 6.4 196 34.3
2011-02-24 14:37:13 51°37.632 2°44.169 197.5 6.4 197 33.9
2011-02-24 14:38:13 51°37.529 2°44.122 197 6.4 196 37.3
2011-02-24 14:39:13 51°37.427 2°44.076 197.4 6.3 196 34.9
2011-02-24 14:40:13 51°37.326 2°44.029 197.5 6.3 197 38.4
2011-02-24 14:41:13 51°37.224 2°43.986 196.5 6.3 195 36.3
2011-02-24 14:42:13 51°37.123 2°43.94 197.4 6.3 195 36.8
2011-02-24 14:43:13 51°37.022 2°43.898 196.6 6.3 195 39.8
2011-02-24 14:44:13 51°36.922 2°43.853 196.7 6.2 195 39.7
2011-02-24 14:45:13 51°36.823 2°43.809 197.5 6.2 196 35
2011-02-24 14:46:13 51°36.723 2°43.763 197.5 6.2 196 38.6
2011-02-24 14:47:13 51°36.622 2°43.72 196.6 6.3 194 37.3
2011-02-24 14:48:13 51°36.523 2°43.675 198.3 6.1 197 42.2
2011-02-24 14:49:13 51°36.424 2°43.632 196.2 6.2 194 41.9
2011-02-24 14:50:13 51°36.325 2°43.589 197.6 6.1 196 42
2011-02-24 14:51:13 51°36.227 2°43.545 197.1 6 196 43.2
2011-02-24 14:52:13 51°36.129 2°43.503 196.8 6.1 195 40.8
2011-02-24 14:53:13 51°36.031 2°43.459 197.2 6.2 195 40
2011-02-24 14:54:13 51°35.933 2°43.416 197.7 6.1 196 43.6
2011-02-24 14:55:13 51°35.835 2°43.374 197.3 6 195 41.9
2011-02-24 14:56:13 51°35.738 2°43.332 197.4 6.1 195 41.4
2011-02-24 14:57:13 51°35.641 2°43.288 197.7 6 196 44.4
2011-02-24 14:58:13 51°35.544 2°43.247 196.9 6 195 44.2
2011-02-24 14:59:13 51°35.447 2°43.204 197 6 195 44.1
2011-02-24 15:00:13 51°35.35 2°43.161 197.7 6 196 45.9
2011-02-24 15:01:13 51°35.254 2°43.119 197.9 6 195 45.4
2011-02-24 15:02:13 51°35.157 2°43.077 197 6.1 195 39.5
2011-02-24 15:03:13 51°35.059 2°43.035 197.4 6.1 195 44.1
2011-02-24 15:04:13 51°34.962 2°42.994 196.8 6.2 193 44.3
2011-02-24 15:05:13 51°34.862 2°42.969 186.6 6 185 36.1
2011-02-24 15:06:13 51°34.762 2°42.956 186.9 6.1 185 43.6
2011-02-24 15:07:13 51°34.654 2°42.946 177.9 7.9 175 44.6
2011-02-24 15:08:13 51°34.487 2°43.011 164.3 12.1 165 38.8
2011-02-24 15:09:13 51°34.274 2°43.101 164.4 13.6 164 40.7
2011-02-24 15:10:13 51°34.057 2°43.208 163.9 13.7 163 34.9
2011-02-24 15:11:13 51°33.84 2°43.311 164.8 13.5 164 35.4
2011-02-24 15:12:13 51°33.622 2°43.414 164.6 13.6 164 33.9
2011-02-24 15:13:13 51°33.405 2°43.515 165 13.5 164 31.8
2011-02-24 15:14:13 51°33.19 2°43.622 164.1 13.4 162 27.9
2011-02-24 15:15:13 51°32.975 2°43.732 164.9 13.4 162 23.2
2011-02-24 15:16:13 51°32.76 2°43.843 165.4 13.6 162 21.3
2011-02-24 15:17:13 51°32.545 2°43.959 165.9 13.7 162 20.8
2011-02-24 15:18:13 51°32.331 2°44.071 165.9 13.4 163 29.9
2011-02-24 15:19:13 51°32.118 2°44.18 165.1 13.4 162 32.6
2011-02-24 15:20:13 51°31.904 2°44.288 165.6 13.5 163 34.8
2011-02-24 15:21:13 51°31.692 2°44.396 165.3 13.4 162 36.1
2011-02-24 15:22:13 51°31.479 2°44.504 164.7 13.4 161 38.2
2011-02-24 15:23:13 51°31.266 2°44.612 165 13.4 163 36.7
2011-02-24 15:24:13 51°31.053 2°44.719 165 13.4 162 35.7
2011-02-24 15:25:13 51°30.841 2°44.829 164.9 13.4 162 39.8
2011-02-24 15:26:13 51°30.629 2°44.936 166.1 13.3 162 34.6
2011-02-24 15:27:13 51°30.417 2°45.047 165.1 13.2 162 33.5
2011-02-24 15:28:13 51°30.206 2°45.158 165.4 13.3 162 33.5
2011-02-24 15:29:13 51°29.996 2°45.269 165.4 13.2 161 31.8
2011-02-24 15:30:13 51°29.786 2°45.382 165.5 13.4 161 28
2011-02-24 15:31:13 51°29.577 2°45.497 164.5 13.3 159 29
2011-02-24 15:32:13 51°29.366 2°45.613 165.4 13.3 160 29.8
2011-02-24 15:33:13 51°29.157 2°45.732 165.4 13.3 161 28.9
2011-02-24 15:34:13 51°28.948 2°45.854 164.8 13.4 160 26
2011-02-24 15:35:13 51°28.738 2°45.974 165.6 13.3 161 29.7
2011-02-24 15:36:13 51°28.528 2°46.094 165.8 13.4 161 29.8
2011-02-24 15:37:13 51°28.32 2°46.214 165.3 13.4 159 30
2011-02-24 15:38:13 51°28.111 2°46.335 165.6 13.3 160 30.5
2011-02-24 15:39:13 51°27.903 2°46.457 164.7 13.3 160 31.5
2011-02-24 15:40:13 51°27.695 2°46.571 166.7 13 163 32.9
2011-02-24 15:41:13 51°27.492 2°46.68 165.6 12.8 162 35.2
2011-02-24 15:42:13 51°27.288 2°46.79 165.3 12.9 162 34.5
2011-02-24 15:43:13 51°27.086 2°46.902 165.7 12.9 161 29.6
2011-02-24 15:44:13 51°26.883 2°47.013 165.6 12.9 161 30.8
2011-02-24 15:45:13 51°26.68 2°47.127 165.4 12.9 161 27.1
2011-02-24 15:46:13 51°26.477 2°47.24 165.5 13 161 27.3
2011-02-24 15:47:13 51°26.273 2°47.353 165.3 12.9 161 26.2
2011-02-24 15:48:13 51°26.067 2°47.465 165.6 13.1 160 26.2
2011-02-24 15:49:13 51°25.862 2°47.581 165.6 13.2 160 25.7
2011-02-24 15:50:13 51°25.656 2°47.697 166.1 13.1 161 27.7
2011-02-24 15:51:13 51°25.452 2°47.811 166 12.8 161 29
2011-02-24 15:52:13 51°25.253 2°47.928 165 12.7 160 30.3
2011-02-24 15:53:13 51°25.055 2°48.046 165.1 12.7 160 32.5
2011-02-24 15:54:13 51°24.857 2°48.165 164.9 12.7 159 31.2
2011-02-24 15:55:13 51°24.659 2°48.283 166 12.8 160 28.9
2011-02-24 15:56:13 51°24.46 2°48.404 164.9 12.8 159 24.6
2011-02-24 15:57:13 51°24.26 2°48.525 164.8 12.8 158 22
2011-02-24 15:58:13 51°24.06 2°48.647 165.1 12.9 159 22.3
2011-02-24 15:59:13 51°23.859 2°48.765 164.9 12.8 160 26.2
2011-02-24 16:00:13 51°23.658 2°48.882 165.9 12.8 160 25.4
2011-02-24 16:01:13 51°23.457 2°49.001 165.6 12.9 160 25
2011-02-24 16:02:13 51°23.258 2°49.124 164.4 12.8 159 23.5
2011-02-24 16:03:13 51°23.056 2°49.245 163.8 13 158 19.3
2011-02-24 16:04:13 51°22.855 2°49.366 166.3 12.9 160 18.3
2011-02-24 16:05:13 51°22.654 2°49.49 165.9 13 158 18.9
2011-02-24 16:06:13 51°22.451 2°49.615 165.6 13.1 158 24.8
2011-02-24 16:07:13 51°22.253 2°49.741 166 12.7 159 25.9
2011-02-24 16:08:13 51°22.057 2°49.864 165.4 12.7 158 26.6
2011-02-24 16:09:13 51°21.864 2°49.988 164.7 12.6 158 25.9
2011-02-24 16:10:13 51°21.67 2°50.106 165 12.5 158 25.5
2011-02-24 16:11:13 51°21.475 2°50.223 165.9 12.5 160 25.9
2011-02-24 16:12:13 51°21.279 2°50.336 166.2 12.5 161 26.7
2011-02-24 16:13:13 51°21.081 2°50.449 165.5 12.7 160 26.6
2011-02-24 16:14:13 51°20.883 2°50.565 165.3 12.6 160 25.5
2011-02-24 16:15:13 51°20.686 2°50.678 164 12.6 159 22.9
2011-02-24 16:16:13 51°20.488 2°50.792 164.2 12.6 163 19.8
2011-02-24 16:17:13 51°20.289 2°50.907 164.8 12.8 160 17.4
2011-02-24 16:18:13 51°20.092 2°51.02 165.2 12.5 161 16.8
2011-02-24 16:19:13 51°19.895 2°51.134 164.8 12.5 159 15.9
2011-02-24 16:20:13 51°19.698 2°51.231 170.8 12.2 169 17.5
2011-02-24 16:21:13 51°19.5 2°51.318 166.4 12.4 161 18.3
2011-02-24 16:22:13 51°19.303 2°51.433 164.7 12.5 161 18.5
2011-02-24 16:23:13 51°19.107 2°51.548 165.5 12.7 161 18.5
2011-02-24 16:24:13 51°18.908 2°51.658 166.7 12.6 161 17.4
2011-02-24 16:25:13 51°18.706 2°51.764 168.3 12.7 164 16.6
2011-02-24 16:26:13 51°18.501 2°51.852 170.8 12.7 164 15.4
2011-02-24 16:27:13 51°18.297 2°51.921 174 12.7 167 14.6
2011-02-24 16:28:13 51°18.092 2°52.001 173.1 12.7 167 14
2011-02-24 16:29:13 51°17.888 2°52.074 173 12.7 167 14.4
2011-02-24 16:30:13 51°17.683 2°52.147 172.8 12.5 167 14.5
2011-02-24 16:31:13 51°17.481 2°52.229 168.1 12.5 161 14.3
2011-02-24 16:32:13 51°17.284 2°52.347 166.8 12.7 160 13.7
2011-02-24 16:33:13 51°17.088 2°52.482 160.8 12.8 154 13
2011-02-24 16:34:13 51°16.894 2°52.628 160.5 13 154 12.8
2011-02-24 16:35:13 51°16.699 2°52.774 161 13.1 155 13.9
2011-02-24 16:36:13 51°16.504 2°52.927 161.2 13 153 14.9
2011-02-24 16:37:13 51°16.31 2°53.083 161.8 13.1 153 15.1
2011-02-24 16:38:13 51°16.117 2°53.238 161.4 13 154 15
2011-02-24 16:39:13 51°15.926 2°53.402 158.3 13.1 151 14.9
2011-02-24 16:40:13 51°15.736 2°53.572 157.1 13.2 148 15.1
2011-02-24 16:41:13 51°15.586 2°53.752 152.6 9.8 144 14.9
2011-02-24 16:42:13 51°15.469 2°53.894 151.8 8.4 141 14.9
2011-02-24 16:43:13 51°15.362 2°54.029 153 8.1 142 14.7
2011-02-24 16:44:13 51°15.252 2°54.161 151.8 8.9 144 15.2
2011-02-24 16:45:13 51°15.11 2°54.323 153.2 12 147 14.4
2011-02-24 16:46:13 51°14.937 2°54.524 146.2 13.4 139 14.2
2011-02-24 16:47:13 51°14.77 2°54.757 146 13.4 138 14.6
2011-02-24 16:48:13 51°14.6 2°54.978 149.6 13.1 140 14.4
2011-02-24 16:49:13 51°14.421 2°55.155 149.5 12.7 151 13.8
2011-02-24 16:50:13 51°14.249 2°55.311 149.6 11.6 149 14.4
2011-02-24 16:51:16 51°14.081 2°55.445 155.7 9.8 155 14.2
2011-02-24 16:52:16 51°13.95 2°55.539 156.1 8 156 -999
2011-02-24 16:53:15 51°13.835 2°55.622 156 7.4 154 13.9
2011-02-24 16:54:16 51°13.75 2°55.716 135.1 5.3 134 -999
2011-02-24 16:55:16 51°13.703 2°55.814 124.9 4 124 -999
2011-02-24 16:56:14 51°13.677 2°55.897 112.9 3.5 112 11.6
2011-02-24 16:57:15 51°13.663 2°55.953 116.6 0.7 113 11.3
2011-02-24 17:01:02 51°13.661 2°55.959 127.8 -999 -999 -999